Kit Carson, CO (80825)

6:50 AM MST on February 13, 2016 (GMT -0700)
Kit Carson | | Change Station
CLOSE
Current Station
Personal Weather Station
Location: Kit Carson, CO
Elevation: 4301 ft
Nearby Weather Stations

Elev 4301 ft 38.77 °N, 102.79 °W | Updated 1 second ago

Fog
Fog
25.1 °F
Feels Like 18 °F
N
6.5
Wind Variable Wind from SSE
Gusts 12.0 mph

Today
High -- | Low -- °F
--% Chance of Precip.
Yesterday
High -- | Low -- °F
Precip. -- in
Pressure 30.26 in
Visibility 0.5 miles
Clouds
Windchill 18 °F
Dew Point 24 °F
Humidity 94%
Rainfall 0.00 in
Snow Depth Not available.
6:45 AM 5:26 PM
Waxing Crescent, 31% visible
METAR KITR 131253Z AUTO 17015KT 1/2SM FZFG VV002 M03/M05 A3019 RMK AO2 SLP246 I1004 T10331050
Pressure 30.26 in
Visibility 0.5 miles
Clouds
Windchill 18 °F
Dew Point 24 °F
Humidity 94%
Rainfall 0.00 in
Snow Depth Not available.
6:45 AM 5:26 PM
Waxing Crescent, 31% visible
METAR KITR 131253Z AUTO 17015KT 1/2SM FZFG VV002 M03/M05 A3019 RMK AO2 SLP246 I1004 T10331050

10-Day Weather Forecast

Almanac

Astronomy

Feb. 13, 2016 Rise Set
Actual Time
Civil Twilight
Nautical Twilight
Astronomical Twilight
Moon
Length of Visible Light
Length of Day
Tomorrow will be .
, % of the Moon is Illuminated

Today's Extremes

State Highs State Lows

Community

WunderPhotos

Upload Photos

1,892,547 photos uploaded!

WunderBlog® & News

Nearby

Air Quality

  Air Quality AQ Index Pollutant
Not available.

Snow Depth

Station Depth Elevation

Earthquake Activity

City Distance Mag. Time & Date
Minimum magnitude displayed is 2.5.

Coastal Water Temperatures

Place Temperature

Stations

Nearby Weather Stations

Station Location Temp. Windchill Dew Point Humidity Wind Precip. Elev Updated Type
                   

Watches & Warnings

There are currently no watches in effect.